Time;durP1;ratioP1;P1;durP2;ratioP2;P2;SDS_P1;SDS_P2;PMS_P1;PMS_P2;Temp;Humidity;BMP_temperature;BMP_pressure;BME280_temperature;BME280_humidity;BME280_pressure;Samples;Min_cycle;Max_cycle;Signal;HPM_P1;HPM_P2
2022/09/15 05:57:01;;;;;;;;;7.00;7.00;;;;;23.73;54.57;100606.75;5046290;27;45533;-89
2022/09/15 05:59:27;;;;;;;;;9.00;8.00;;;;;23.85;54.50;100609.06;5069111;28;45611;-89
2022/09/15 06:01:52;;;;;;;;;8.00;8.00;;;;;24.05;54.43;100610.38;5063409;27;45418;-88
2022/09/15 06:04:18;;;;;;;;;9.00;9.00;;;;;24.31;54.03;100605.72;5060424;27;45419;-87
2022/09/15 06:06:43;;;;;;;;;8.33;8.33;;;;;24.58;53.63;100607.09;5054495;28;55315;-89
2022/09/15 06:09:08;;;;;;;;;7.33;7.00;;;;;24.89;52.81;100615.41;5054031;28;45325;-84
2022/09/15 06:11:34;;;;;;;;;8.00;8.00;;;;;25.19;52.24;100616.38;5060127;27;45343;-87
2022/09/15 06:14:01;;;;;;;;;10.33;9.33;;;;;25.46;51.63;100621.41;5070343;27;45642;-90
2022/09/15 06:16:30;;;;;;;;;10.00;10.00;;;;;25.74;51.28;100623.50;5056308;28;46187;-90
2022/09/15 06:18:58;;;;;;;;;12.33;11.00;;;;;25.96;50.18;100627.19;5052275;28;45431;-85
2022/09/15 06:21:26;;;;;;;;;10.00;9.00;;;;;26.20;49.91;100633.34;5057597;28;45498;-87
2022/09/15 06:23:56;;;;;;;;;8.00;8.00;;;;;26.39;49.36;100636.53;5070888;28;45438;-87
2022/09/15 06:26:22;;;;;;;;;9.67;8.67;;;;;26.60;48.56;100632.19;5062091;27;46460;-84
2022/09/15 06:28:57;;;;;;;;;8.33;8.33;;;;;26.77;48.47;100633.59;5057826;28;45427;-87
2022/09/15 06:31:24;;;;;;;;;10.67;10.67;;;;;26.92;47.98;100641.72;5069725;27;45969;-89
2022/09/15 06:33:51;;;;;;;;;11.00;9.00;;;;;27.08;47.38;100647.97;5058034;28;45514;-91
2022/09/15 06:36:18;;;;;;;;;10.00;10.00;;;;;27.19;46.86;100655.66;5063196;28;47379;-86
2022/09/15 06:38:44;;;;;;;;;8.67;8.00;;;;;27.28;46.39;100658.22;5067225;27;45577;-86
2022/09/15 06:41:11;;;;;;;;;9.00;9.00;;;;;27.39;46.36;100668.59;5071452;27;45459;-86
2022/09/15 06:43:37;;;;;;;;;6.00;6.00;;;;;27.40;47.97;100672.16;5079951;27;45466;-81
2022/09/15 06:46:11;;;;;;;;;9.33;7.33;;;;;27.31;48.12;100669.59;5059998;27;46199;-89
2022/09/15 06:48:38;;;;;;;;;9.33;9.33;;;;;27.25;46.86;100670.34;5066112;28;45797;-81
2022/09/15 06:51:05;;;;;;;;;8.67;8.67;;;;;27.23;46.88;100670.53;5054788;27;45423;-81
2022/09/15 06:53:32;;;;;;;;;10.67;10.67;;;;;27.24;46.14;100668.69;5059894;28;45538;-74
2022/09/15 06:56:05;;;;;;;;;8.33;8.33;;;;;27.30;46.52;100678.78;5058072;27;45722;-74
2022/09/15 06:58:33;;;;;;;;;11.67;11.00;;;;;27.37;46.51;100681.56;5064461;27;45653;-73
2022/09/15 07:01:04;;;;;;;;;11.00;7.67;;;;;27.48;46.42;100685.66;5058267;27;45568;-74
2022/09/15 07:03:30;;;;;;;;;7.33;7.33;;;;;27.56;46.29;100684.66;5085218;27;45418;-75
2022/09/15 07:05:55;;;;;;;;;8.33;8.00;;;;;27.64;46.61;100690.00;5062707;27;45444;-74
2022/09/15 07:08:21;;;;;;;;;8.33;8.33;;;;;27.72;46.61;100697.19;5048777;28;45423;-73
2022/09/15 07:10:47;;;;;;;;;5.00;5.00;;;;;27.79;46.80;100689.88;5051365;28;45534;-74
2022/09/15 07:13:12;;;;;;;;;7.00;6.00;;;;;27.87;46.76;100699.81;5045208;28;46530;-74
2022/09/15 07:15:38;;;;;;;;;7.33;7.33;;;;;27.93;46.42;100703.63;5045529;28;47327;-73
2022/09/15 07:18:04;;;;;;;;;5.00;5.00;;;;;28.01;46.91;100703.47;5046074;28;45910;-73
2022/09/15 07:20:29;;;;;;;;;5.67;5.67;;;;;28.09;46.48;100716.97;5037024;28;45332;-74
2022/09/15 07:22:55;;;;;;;;;7.33;6.00;;;;;28.15;46.43;100709.84;5050113;28;45443;-74
2022/09/15 07:25:20;;;;;;;;;4.00;4.00;;;;;28.24;46.75;100718.72;5039351;28;46652;-73
2022/09/15 07:27:46;;;;;;;;;6.00;6.00;;;;;28.30;46.15;100717.94;5049077;28;45416;-73
2022/09/15 07:30:12;;;;;;;;;6.67;4.67;;;;;28.37;45.85;100723.44;5044957;28;45891;-74
2022/09/15 07:32:39;;;;;;;;;5.67;5.67;;;;;28.44;45.98;100727.03;5050314;28;45556;-74
2022/09/15 07:35:05;;;;;;;;;5.00;4.00;;;;;28.51;45.76;100732.53;5069706;27;47216;-74
2022/09/15 07:37:32;;;;;;;;;6.67;6.67;;;;;28.56;45.98;100730.03;5048304;28;45338;-75
2022/09/15 07:39:57;;;;;;;;;4.67;4.67;;;;;28.58;45.96;100727.97;5039033;28;45435;-74
2022/09/15 07:42:22;;;;;;;;;4.00;4.00;;;;;28.61;45.69;100729.44;5035903;28;45914;-74
2022/09/15 07:44:47;;;;;;;;;4.00;4.00;;;;;28.64;45.71;100737.22;5040094;28;45414;-75
2022/09/15 07:47:13;;;;;;;;;5.00;5.00;;;;;28.65;45.57;100738.91;5047020;28;45384;-75
2022/09/15 07:49:38;;;;;;;;;5.00;3.00;;;;;28.67;45.66;100745.84;5049441;28;45276;-74
2022/09/15 07:52:04;;;;;;;;;5.33;5.33;;;;;28.69;45.92;100745.63;5051742;28;45689;-74
2022/09/15 07:54:29;;;;;;;;;4.00;4.00;;;;;28.72;45.56;100747.97;5052787;28;46491;-75
2022/09/15 07:56:54;;;;;;;;;4.00;4.00;;;;;28.72;46.24;100756.16;5044560;28;45591;-75
2022/09/15 07:59:19;;;;;;;;;5.00;5.00;;;;;28.75;45.94;100755.75;5034527;28;45452;-73
2022/09/15 08:01:45;;;;;;;;;4.67;4.67;;;;;28.77;45.71;100741.91;5050731;28;50580;-74
2022/09/15 08:04:10;;;;;;;;;5.00;5.00;;;;;28.78;46.34;100758.06;5043560;28;47148;-73
2022/09/15 08:06:36;;;;;;;;;3.67;3.00;;;;;28.81;45.81;100762.28;5058351;28;45482;-75
2022/09/15 08:09:01;;;;;;;;;4.67;4.67;;;;;28.84;46.19;100774.69;5062024;27;47172;-73
2022/09/15 08:11:27;;;;;;;;;4.33;4.33;;;;;28.86;46.15;100759.81;5049598;28;45581;-74
2022/09/15 08:13:52;;;;;;;;;4.00;4.00;;;;;28.89;46.26;100770.31;5050769;28;46167;-74
2022/09/15 08:16:23;;;;;;;;;3.00;3.00;;;;;28.91;45.89;100776.44;5052862;28;45691;-74
2022/09/15 08:18:50;;;;;;;;;4.33;4.33;;;;;28.93;45.96;100781.69;5047064;28;45409;-75
2022/09/15 08:21:21;;;;;;;;;3.67;3.67;;;;;28.96;46.27;100775.81;5037520;28;45974;-74
2022/09/15 08:23:54;;;;;;;;;4.67;4.33;;;;;29.00;46.42;100795.38;5033561;28;46076;-75
2022/09/15 08:26:20;;;;;;;;;4.33;4.33;;;;;29.00;46.14;100789.91;5035588;28;47748;-75
2022/09/15 08:28:47;;;;;;;;;5.00;4.00;;;;;29.02;45.92;100790.56;5044001;28;45659;-74
2022/09/15 08:31:13;;;;;;;;;5.67;5.67;;;;;29.02;46.35;100796.03;5048385;28;45548;-74
2022/09/15 08:33:39;;;;;;;;;3.00;3.00;;;;;29.04;45.91;100785.72;5052491;28;47198;-76
2022/09/15 08:36:10;;;;;;;;;3.33;3.33;;;;;29.05;45.65;100790.97;5046827;28;45717;-75
2022/09/15 08:38:37;;;;;;;;;5.00;5.00;;;;;29.06;45.91;100784.47;5050856;28;45704;-75
2022/09/15 08:41:08;;;;;;;;;4.67;4.00;;;;;29.08;45.67;100792.47;5053261;28;45365;-74
2022/09/15 08:44:02;;;;;;;;;4.67;4.67;;;;;29.10;45.71;100787.63;5050284;28;45573;-74
2022/09/15 08:46:38;;;;;;;;;3.00;3.00;;;;;29.13;46.26;100797.28;5044220;28;45539;-74
2022/09/15 08:49:20;;;;;;;;;4.00;4.00;;;;;29.12;45.88;100793.75;5052250;28;46969;-75
2022/09/15 08:51:48;;;;;;;;;5.00;5.00;;;;;29.12;45.94;100801.09;5049071;28;45423;-74
2022/09/15 08:54:26;;;;;;;;;4.33;3.33;;;;;29.14;46.22;100807.19;5050942;28;45431;-74
2022/09/15 08:56:55;;;;;;;;;6.00;6.00;;;;;29.17;43.95;100815.81;5047424;28;45521;-75
2022/09/15 08:59:20;;;;;;;;;5.00;5.00;;;;;29.23;43.71;100810.59;5043238;27;45446;-73
2022/09/15 09:02:10;;;;;;;;;6.67;6.67;;;;;29.29;43.57;100815.22;5051611;28;45451;-72
2022/09/15 09:05:02;;;;;;;;;7.00;7.00;;;;;29.35;42.84;100813.56;5050957;28;45541;-73
2022/09/15 09:07:33;;;;;;;;;6.00;6.00;;;;;29.38;42.93;100813.97;5057082;28;45611;-72
2022/09/15 09:10:01;;;;;;;;;6.33;6.33;;;;;29.40;42.69;100820.09;5053660;28;45406;-75
2022/09/15 09:12:44;;;;;;;;;7.00;6.67;;;;;29.41;42.18;100818.19;5059202;28;45862;-74
2022/09/15 09:15:25;;;;;;;;;10.00;10.00;;;;;29.39;42.07;100815.66;5050594;27;45529;-73
2022/09/15 09:18:35;;;;;;;;;7.67;7.67;;;;;29.38;41.90;100813.97;5050644;28;45526;-74
2022/09/15 09:21:11;;;;;;;;;7.00;6.33;;;;;29.38;41.62;100821.34;5044441;28;45490;-74
2022/09/15 09:23:48;;;;;;;;;6.00;6.00;;;;;29.36;42.16;100823.44;5051504;28;45364;-73
2022/09/15 09:26:14;;;;;;;;;8.67;7.67;;;;;29.34;42.27;100818.16;5035618;28;46313;-73
2022/09/15 09:28:51;;;;;;;;;7.67;7.00;;;;;29.32;41.96;100817.53;5031240;28;45691;-74
2022/09/15 10:42:00;;;;;;;;;9.00;9.00;;;;;25.33;49.46;100815.72;5044626;27;45891;-75
2022/09/15 10:44:31;;;;;;;;;7.00;7.00;;;;;25.43;49.45;100809.22;5049985;27;45348;-76
2022/09/15 10:47:14;;;;;;;;;7.00;7.00;;;;;25.61;49.54;100798.06;5050213;28;45392;-76
2022/09/15 10:50:01;;;;;;;;;6.33;6.33;;;;;25.86;49.47;100811.47;5050939;28;45439;-77
2022/09/15 10:52:58;;;;;;;;;5.33;5.33;;;;;26.15;49.21;100807.13;5048767;28;45396;-76
2022/09/15 10:56:02;;;;;;;;;6.00;6.00;;;;;26.50;48.78;100804.78;5066289;27;45666;-76
2022/09/15 10:58:40;;;;;;;;;9.33;9.33;;;;;26.79;48.29;100799.50;5040361;28;45317;-74
2022/09/15 11:01:05;;;;;;;;;6.33;6.33;;;;;27.01;48.07;100805.88;5049813;28;45665;-76
2022/09/15 11:03:30;;;;;;;;;7.00;7.00;;;;;27.23;47.53;100814.94;5049136;28;46084;-76
2022/09/15 11:06:15;;;;;;;;;6.67;6.67;;;;;27.43;46.97;100813.50;5050745;28;45439;-76
2022/09/15 11:09:03;;;;;;;;;8.33;7.00;;;;;27.60;47.06;100811.38;5059221;28;45395;-72
2022/09/15 11:11:58;;;;;;;;;5.67;5.67;;;;;27.79;46.73;100812.59;5049482;28;45436;-72
2022/09/15 11:14:27;;;;;;;;;5.00;5.00;;;;;27.94;46.54;100803.50;5049375;28;46261;-72
2022/09/15 11:16:55;;;;;;;;;6.00;6.00;;;;;28.07;45.88;100802.78;5065017;27;46058;-73
2022/09/15 11:19:40;;;;;;;;;6.33;6.33;;;;;28.19;45.03;100811.28;5051603;28;45539;-73
2022/09/15 11:22:35;;;;;;;;;8.00;7.33;;;;;28.27;45.05;100797.47;5052121;28;45408;-74
2022/09/15 11:25:00;;;;;;;;;6.33;6.33;;;;;28.39;45.01;100808.69;5051907;28;45531;-74
2022/09/15 11:27:28;;;;;;;;;8.00;6.67;;;;;28.49;45.00;100809.16;5065629;28;45385;-74
2022/09/15 11:30:20;;;;;;;;;5.67;5.67;;;;;28.60;45.08;100813.22;5050596;28;45470;-73
2022/09/15 11:33:10;;;;;;;;;7.00;6.00;;;;;28.70;44.40;100818.34;5041274;28;45396;-74
2022/09/15 11:35:54;;;;;;;;;5.33;4.33;;;;;28.80;44.13;100816.06;5049779;28;46241;-74
2022/09/15 11:38:23;;;;;;;;;8.00;8.00;;;;;28.88;43.82;100816.94;5049970;28;45499;-74
2022/09/15 11:41:03;;;;;;;;;4.67;4.67;;;;;28.96;44.37;100815.94;5050325;28;45413;-74
2022/09/15 11:43:35;;;;;;;;;6.00;6.00;;;;;29.03;44.08;100803.16;5065599;28;45555;-73
2022/09/15 11:46:10;;;;;;;;;5.00;5.00;;;;;29.08;43.93;100797.94;5070943;27;46626;-74
2022/09/15 11:48:46;;;;;;;;;5.00;5.00;;;;;29.12;43.07;100809.28;5043766;28;46138;-75
2022/09/15 11:51:18;;;;;;;;;10.00;7.00;;;;;29.15;43.69;100809.72;5037455;28;45619;-75
2022/09/15 11:54:04;;;;;;;;;6.00;6.00;;;;;29.15;43.32;100814.34;5040407;28;45327;-74
2022/09/15 11:56:39;;;;;;;;;7.00;7.00;;;;;29.03;43.32;100814.09;5036527;28;46259;-73
2022/09/15 11:59:30;;;;;;;;;4.00;4.00;;;;;28.89;44.40;100810.47;5036545;28;45533;-76
2022/09/15 12:02:20;;;;;;;;;5.67;5.67;;;;;28.80;44.30;100815.22;5039361;28;45450;-76
2022/09/15 12:05:38;;;;;;;;;7.33;5.67;;;;;28.70;44.72;100803.81;5044484;28;45518;-76
2022/09/15 12:08:08;;;;;;;;;6.00;6.00;;;;;28.64;44.21;100802.75;5026256;28;45356;-75
2022/09/15 12:10:40;;;;;;;;;5.67;5.67;;;;;28.61;44.23;100797.69;5024754;28;45258;-76
2022/09/15 12:13:15;;;;;;;;;7.00;6.67;;;;;28.57;44.46;100807.34;5035436;28;45475;-76
2022/09/15 12:15:42;;;;;;;;;7.00;5.00;;;;;28.52;44.72;100800.59;5045123;28;45477;-76
2022/09/15 12:18:50;;;;;;;;;7.33;6.33;;;;;28.49;45.29;100797.41;5035553;28;45465;-76
2022/09/15 12:21:32;;;;;;;;;7.00;7.00;;;;;28.49;45.00;100800.97;5030101;28;45601;-75
2022/09/15 12:24:02;;;;;;;;;7.00;7.00;;;;;28.49;44.72;100795.53;5033965;28;45404;-75
2022/09/15 12:26:31;;;;;;;;;5.67;5.67;;;;;28.48;44.79;100802.03;5032299;28;45441;-75
2022/09/15 12:29:23;;;;;;;;;4.67;4.67;;;;;28.51;44.83;100796.19;5032741;28;45748;-74
2022/09/15 12:32:17;;;;;;;;;6.67;5.67;;;;;28.49;44.85;100805.63;5030776;28;45577;-74
2022/09/15 12:34:58;;;;;;;;;5.00;5.00;;;;;28.42;44.60;100802.84;5029262;28;45581;-75
2022/09/15 12:37:28;;;;;;;;;6.33;5.00;;;;;28.41;45.05;100803.88;5031826;28;45542;-76
2022/09/15 12:39:54;;;;;;;;;3.00;3.00;;;;;28.40;44.97;100796.72;5031612;28;48841;-75
2022/09/15 12:42:23;;;;;;;;;8.67;6.33;;;;;28.43;44.90;100792.75;5031890;28;45737;-76
2022/09/15 12:44:53;;;;;;;;;7.00;7.00;;;;;28.44;44.98;100795.28;5032795;28;45515;-75
2022/09/15 12:47:20;;;;;;;;;5.67;5.67;;;;;28.45;44.76;100793.41;5033264;28;45579;-78
2022/09/15 12:49:49;;;;;;;;;3.67;3.67;;;;;28.40;44.93;100805.75;5032749;28;45706;-76
2022/09/15 12:52:15;;;;;;;;;5.00;5.00;;;;;28.33;44.47;100799.44;5032556;28;45474;-77
2022/09/15 12:54:48;;;;;;;;;5.00;5.00;;;;;28.31;44.63;100796.03;5036435;28;45468;-77
2022/09/15 12:57:28;;;;;;;;;6.33;6.33;;;;;28.32;44.25;100802.34;5039021;28;45611;-85
2022/09/15 13:00:35;;;;;;;;;6.00;6.00;;;;;28.34;44.93;100801.13;5035970;28;45463;-78
2022/09/15 13:03:03;;;;;;;;;6.00;6.00;;;;;28.30;44.83;100794.38;5030498;28;45529;-77
2022/09/15 13:05:41;;;;;;;;;5.00;4.00;;;;;28.28;44.37;100794.56;5049658;28;45407;-79
2022/09/15 13:08:32;;;;;;;;;5.67;5.33;;;;;28.30;44.08;100790.78;5036082;28;45313;-79
2022/09/15 13:11:03;;;;;;;;;5.67;5.67;;;;;28.28;44.64;100797.28;5042574;28;45472;-80
2022/09/15 13:13:44;;;;;;;;;5.67;5.67;;;;;28.24;44.74;100796.00;5020824;28;45432;-78
2022/09/15 13:16:30;;;;;;;;;5.00;5.00;;;;;28.23;43.99;100783.38;5033898;28;45733;-77
2022/09/15 13:19:13;;;;;;;;;4.67;4.33;;;;;28.23;43.98;100788.81;5020756;28;45734;-78
2022/09/15 13:21:42;;;;;;;;;5.33;5.33;;;;;28.23;44.19;100790.69;5028585;28;45385;-78
2022/09/15 13:24:18;;;;;;;;;7.00;4.33;;;;;28.23;44.66;100785.25;5035382;28;45504;-81
2022/09/15 13:26:50;;;;;;;;;8.33;7.00;;;;;28.22;44.34;100780.84;5027614;28;45822;-82
2022/09/15 13:29:16;;;;;;;;;18.00;15.00;;;;;28.19;45.12;100779.34;5040358;28;45558;-86
2022/09/15 13:31:53;;;;;;;;;18.33;18.33;;;;;28.18;44.98;100783.13;5036718;28;45534;-80
2022/09/15 13:34:40;;;;;;;;;16.00;15.33;;;;;28.13;44.58;100780.16;5017013;28;45809;-80
2022/09/15 13:37:11;;;;;;;;;11.00;10.67;;;;;28.14;43.96;100779.09;5031567;28;45490;-80
2022/09/15 13:40:01;;;;;;;;;12.00;11.33;;;;;28.13;43.83;100763.78;5036907;28;45585;-81
2022/09/15 13:43:14;;;;;;;;;11.00;11.00;;;;;28.18;43.50;100764.03;5036813;28;46255;-77
2022/09/15 13:45:53;;;;;;;;;11.33;10.67;;;;;28.24;43.91;100768.72;5022747;28;45903;-77
2022/09/15 13:48:38;;;;;;;;;12.00;11.00;;;;;28.28;44.15;100760.97;5038524;28;45455;-81
2022/09/15 15:28:28;;;;;;;;;9.00;9.00;;;;;25.02;49.88;100746.00;5070817;27;45584;-75
2022/09/15 15:31:15;;;;;;;;;12.00;9.00;;;;;25.10;49.96;100753.25;5063317;27;45520;-76
2022/09/15 15:34:04;;;;;;;;;10.33;10.33;;;;;25.28;49.85;100750.22;5067004;27;45448;-76
2022/09/15 15:36:32;;;;;;;;;10.00;8.33;;;;;25.48;49.64;100749.75;5065186;27;45667;-77
2022/09/15 15:39:01;;;;;;;;;11.00;10.00;;;;;25.70;49.13;100753.50;5065147;27;46173;-76
2022/09/15 15:41:30;;;;;;;;;8.00;8.00;;;;;25.91;48.53;100754.66;5056773;27;45517;-76
2022/09/15 15:44:20;;;;;;;;;10.67;10.00;;;;;26.11;48.37;100757.72;5070723;27;45514;-74
2022/09/15 15:46:48;;;;;;;;;6.33;6.33;;;;;26.30;48.40;100755.50;5057195;27;45554;-77
2022/09/15 15:49:13;;;;;;;;;8.00;8.00;;;;;26.44;48.12;100760.09;5065640;27;47062;-77
2022/09/15 15:51:39;;;;;;;;;8.67;8.67;;;;;26.55;48.10;100757.94;5062872;28;45481;-77
2022/09/15 15:54:04;;;;;;;;;7.67;7.67;;;;;26.66;47.78;100749.31;5064494;27;45348;-77
2022/09/15 15:56:30;;;;;;;;;9.33;9.33;;;;;26.78;47.94;100759.72;5068168;27;45383;-76
2022/09/15 15:58:55;;;;;;;;;10.00;8.50;;;;;26.91;47.01;100762.59;5071133;28;45418;-80
2022/09/15 16:01:21;;;;;;;;;9.67;9.67;;;;;27.10;46.41;100761.16;5069746;27;45559;-80
2022/09/15 16:03:46;;;;;;;;;12.00;9.00;;;;;27.29;45.73;100763.44;5070365;27;46078;-80
2022/09/15 16:06:12;;;;;;;;;8.00;8.00;;;;;27.46;44.98;100748.53;5068555;27;45942;-80
2022/09/15 16:08:41;;;;;;;;;12.67;11.33;;;;;27.65;44.08;100754.41;5069857;28;46797;-80
2022/09/15 16:11:09;;;;;;;;;10.67;10.33;;;;;27.81;43.51;100764.19;5065199;27;45567;-79
2022/09/15 16:13:34;;;;;;;;;12.33;11.67;;;;;27.96;43.37;100764.06;5063853;27;45533;-79
2022/09/15 16:16:00;;;;;;;;;11.00;11.00;;;;;28.10;43.57;100754.13;5069680;27;45467;-74
2022/09/15 16:18:26;;;;;;;;;15.33;13.67;;;;;28.22;42.76;100761.72;5067135;27;46759;-73
2022/09/15 16:20:52;;;;;;;;;13.00;13.00;;;;;28.32;42.69;100758.69;5073493;27;45798;-76
2022/09/15 16:23:21;;;;;;;;;11.00;11.00;;;;;28.41;42.22;100757.50;5072983;27;45603;-75
2022/09/15 16:25:56;;;;;;;;;12.00;11.33;;;;;28.50;42.68;100758.16;5072565;27;45412;-79
2022/09/15 16:28:22;;;;;;;;;12.33;11.33;;;;;28.57;43.06;100753.56;5074602;27;46361;-75
2022/09/15 16:30:47;;;;;;;;;11.00;11.00;;;;;28.59;42.40;100754.22;5069734;27;45423;-75
2022/09/15 16:33:18;;;;;;;;;8.33;8.33;;;;;28.58;42.08;100757.13;5054809;28;45887;-75
2022/09/15 16:35:50;;;;;;;;;13.00;10.00;;;;;28.51;41.09;100755.22;5055281;27;45332;-75
2022/09/15 16:38:18;;;;;;;;;9.33;9.33;;;;;28.45;41.47;100757.91;5049323;27;45596;-75
2022/09/15 16:40:48;;;;;;;;;10.00;10.00;;;;;28.40;40.89;100766.69;5050069;28;45565;-76
2022/09/15 16:43:20;;;;;;;;;8.67;8.67;;;;;28.32;41.20;100758.69;5042885;28;45735;-76
2022/09/15 16:45:46;;;;;;;;;9.33;9.33;;;;;28.30;40.24;100764.34;5044274;28;45494;-76
2022/09/15 16:48:12;;;;;;;;;8.00;8.00;;;;;28.26;40.48;100768.50;5038292;28;46079;-77
2022/09/15 16:50:38;;;;;;;;;9.00;9.00;;;;;28.19;40.97;100762.16;5038298;28;45498;-76
2022/09/15 16:53:04;;;;;;;;;9.33;9.33;;;;;28.23;40.19;100769.72;5041909;28;45778;-79
2022/09/15 16:55:38;;;;;;;;;8.67;8.67;;;;;28.31;40.18;100763.28;5045198;28;46085;-77
2022/09/15 16:58:05;;;;;;;;;5.00;5.00;;;;;28.41;38.60;100765.69;5047827;28;45457;-76
2022/09/15 17:00:33;;;;;;;;;9.00;9.00;;;;;28.49;38.37;100762.75;5050539;28;45515;-77
2022/09/15 17:02:59;;;;;;;;;8.33;7.67;;;;;28.57;39.10;100771.84;5045409;28;45423;-76
2022/09/15 17:05:39;;;;;;;;;7.00;7.00;;;;;28.62;38.83;100772.06;5048677;28;45404;-76
2022/09/15 17:08:07;;;;;;;;;9.00;9.00;;;;;28.66;39.02;100774.19;5051136;28;46232;-76
2022/09/15 17:10:32;;;;;;;;;10.33;9.00;;;;;28.75;39.83;100771.28;5052210;28;45575;-79
2022/09/15 17:12:59;;;;;;;;;11.00;10.67;;;;;28.81;40.59;100778.66;5045284;28;45852;-79
2022/09/15 17:15:44;;;;;;;;;11.33;10.00;;;;;28.88;40.75;100784.16;5040758;28;45586;-79
2022/09/15 17:18:14;;;;;;;;;9.33;9.33;;;;;28.96;40.77;100785.88;5045330;28;45459;-79
2022/09/15 17:20:40;;;;;;;;;11.00;8.33;;;;;29.03;40.53;100784.03;5044679;28;45717;-79
2022/09/15 17:23:19;;;;;;;;;8.00;8.00;;;;;29.08;40.24;100787.00;5052175;28;45572;-79
2022/09/15 17:25:51;;;;;;;;;9.00;9.00;;;;;29.13;40.57;100784.50;5049549;28;46188;-79
2022/09/15 17:28:21;;;;;;;;;9.00;8.00;;;;;29.18;40.00;100789.34;5043731;28;45978;-79
2022/09/15 17:30:48;;;;;;;;;10.00;10.00;;;;;29.18;40.73;100795.63;5046774;28;45487;-78
2022/09/15 17:33:15;;;;;;;;;8.00;7.33;;;;;29.22;39.98;100797.97;5048341;28;45453;-79
2022/09/15 17:35:41;;;;;;;;;7.33;7.33;;;;;29.23;40.08;100799.66;5043100;28;45587;-79
2022/09/15 17:38:08;;;;;;;;;6.00;6.00;;;;;29.19;41.36;100800.06;5060050;27;47123;-78
2022/09/15 17:40:34;;;;;;;;;7.67;7.67;;;;;29.17;40.39;100809.50;5044802;28;46652;-79
2022/09/15 17:42:59;;;;;;;;;8.00;8.00;;;;;29.18;40.21;100805.75;5048880;28;46626;-79
2022/09/15 17:45:29;;;;;;;;;7.00;7.00;;;;;29.20;40.52;100809.09;5044853;28;45474;-80
2022/09/15 17:47:55;;;;;;;;;8.00;8.00;;;;;29.20;40.11;100806.38;5043246;28;48562;-79
2022/09/15 17:50:23;;;;;;;;;9.67;7.33;;;;;29.23;40.54;100811.44;5046247;28;45487;-79
2022/09/15 17:52:49;;;;;;;;;10.00;8.00;;;;;29.24;40.09;100815.00;5035552;28;46969;-79
2022/09/15 17:55:25;;;;;;;;;10.33;9.00;;;;;29.25;39.99;100811.22;5048264;28;45658;-78
2022/09/15 17:57:51;;;;;;;;;10.00;10.00;;;;;29.27;40.75;100815.44;5052814;28;47315;-79
2022/09/15 18:00:19;;;;;;;;;10.00;10.00;;;;;29.28;40.38;100814.41;5054491;28;46152;-79
2022/09/15 18:02:52;;;;;;;;;9.00;9.00;;;;;29.31;40.75;100824.06;5054098;28;45530;-79
2022/09/15 18:05:19;;;;;;;;;9.33;9.00;;;;;29.31;40.49;100830.34;5053264;27;45530;-79
2022/09/15 18:07:45;;;;;;;;;8.33;7.00;;;;;29.31;40.50;100821.34;5038881;28;46066;-80
2022/09/15 18:10:11;;;;;;;;;8.00;7.00;;;;;29.31;40.41;100829.53;5039368;28;45542;-80
2022/09/15 18:12:37;;;;;;;;;9.67;9.67;;;;;29.29;40.86;100826.16;5039847;28;45560;-77
2022/09/15 18:15:02;;;;;;;;;8.67;7.67;;;;;29.29;41.09;100828.88;5041246;28;45561;-80
2022/09/15 18:17:28;;;;;;;;;8.67;8.67;;;;;29.28;40.95;100835.41;5037780;28;46779;-80
2022/09/15 18:19:53;;;;;;;;;10.00;10.00;;;;;29.29;40.59;100850.75;5042360;28;46024;-79
2022/09/15 18:22:21;;;;;;;;;10.00;7.67;;;;;29.28;40.31;100857.28;5044929;28;45410;-78
2022/09/15 18:24:47;;;;;;;;;12.67;11.00;;;;;29.22;40.30;100852.63;5045708;28;45430;-76
2022/09/15 18:27:12;;;;;;;;;12.00;12.00;;;;;29.14;40.58;100861.84;5046605;28;51558;-76
2022/09/15 18:29:37;;;;;;;;;11.00;10.00;;;;;29.12;40.89;100869.41;5046674;28;45304;-76
2022/09/15 18:32:03;;;;;;;;;13.67;11.00;;;;;29.10;40.84;100868.78;5048512;28;45736;-76
2022/09/15 18:34:28;;;;;;;;;10.33;10.33;;;;;29.10;40.87;100868.78;5048247;28;45593;-75
2022/09/15 18:36:54;;;;;;;;;11.00;10.33;;;;;29.09;40.74;100870.66;5061785;27;46968;-76
2022/09/15 18:39:19;;;;;;;;;11.67;11.67;;;;;29.06;40.37;100860.16;5050468;28;45612;-76
2022/09/15 18:41:44;;;;;;;;;10.33;10.33;;;;;29.06;40.42;100877.38;5054498;28;45380;-76
2022/09/15 18:44:10;;;;;;;;;9.67;9.67;;;;;29.05;40.45;100866.63;5053808;28;45589;-76
2022/09/15 18:46:37;;;;;;;;;12.33;10.00;;;;;29.06;40.72;100874.63;5053804;28;46217;-76
